createdAt,value
2022-11-06T00:01:15.443Z,15.82
2022-11-06T00:03:42.927Z,44.78
2022-11-06T00:06:31.330Z,22.33
2022-11-06T00:09:03.760Z,77.30
2022-11-06T00:11:30.575Z,24.55
2022-11-06T00:13:57.946Z,12.00
2022-11-06T00:16:24.916Z,13.43
2022-11-06T00:18:51.648Z,19.25
2022-11-06T00:21:21.631Z,37.92
2022-11-06T00:23:49.155Z,47.63
2022-11-06T00:26:18.556Z,36.60
2022-11-06T00:28:45.591Z,77.03
2022-11-06T00:31:15.889Z,61.53
2022-11-06T00:33:43.345Z,62.97
2022-11-06T00:36:15.721Z,74.72
2022-11-06T00:38:43.243Z,22.30
2022-11-06T00:41:15.857Z,10.15
2022-11-06T00:43:47.420Z,7.32
2022-11-06T00:46:14.780Z,16.83
2022-11-06T00:48:42.380Z,5.88
2022-11-06T00:51:10.918Z,3.85
2022-11-06T00:53:38.435Z,6.03
2022-11-06T00:56:07.224Z,58.65
2022-11-06T00:58:34.430Z,29.95
2022-11-06T01:01:15.988Z,44.30
2022-11-06T01:03:45.111Z,58.40
2022-11-06T01:06:21.182Z,22.23
2022-11-06T01:08:48.813Z,28.42
2022-11-06T01:11:23.163Z,17.42
2022-11-06T01:13:53.272Z,3.25
2022-11-06T01:16:20.504Z,2.67
2022-11-06T01:18:47.753Z,5.60
2022-11-06T01:21:18.150Z,15.50
2022-11-06T01:23:45.476Z,11.65
2022-11-06T01:26:14.187Z,3.05
2022-11-06T01:28:41.655Z,2.00
2022-11-06T01:31:23.427Z,5.40
2022-11-06T01:33:50.598Z,3.17
2022-11-06T01:36:19.670Z,6.25
2022-11-06T01:38:48.696Z,2.45
2022-11-06T01:41:21.818Z,4.55
2022-11-06T01:43:50.064Z,3.75
2022-11-06T01:46:18.853Z,4.80
2022-11-06T01:48:56.302Z,19.10
2022-11-06T01:51:26.564Z,4.78
2022-11-06T01:53:53.979Z,17.10
2022-11-06T01:56:22.317Z,9.70
2022-11-06T01:58:52.036Z,19.08
2022-11-06T02:01:19.251Z,6.57
2022-11-06T02:04:22.987Z,14.85
2022-11-06T02:06:50.501Z,12.50
2022-11-06T02:09:18.548Z,25.75
2022-11-06T02:12:02.924Z,15.93
2022-11-06T02:14:53.907Z,9.65
2022-11-06T02:17:36.786Z,16.52
2022-11-06T02:20:25.233Z,27.73
2022-11-06T02:23:25.274Z,14.40
2022-11-06T02:26:00.756Z,49.03
2022-11-06T02:28:41.376Z,20.85
2022-11-06T02:31:15.608Z,17.33
2022-11-06T02:33:52.022Z,6.18
2022-11-06T02:36:25.830Z,1.30
2022-11-06T02:38:58.840Z,5.10
2022-11-06T02:41:39.344Z,24.52
2022-11-06T02:44:13.713Z,3.22
2022-11-06T02:46:53.352Z,7.50
2022-11-06T02:49:41.061Z,5.55
2022-11-06T02:52:34.110Z,39.38
2022-11-06T02:55:13.292Z,9.27
2022-11-06T02:57:45.095Z,8.43
2022-11-06T03:00:17.005Z,2.90
2022-11-06T03:02:50.515Z,15.85
2022-11-06T03:05:28.928Z,8.77
2022-11-06T03:08:12.017Z,5.15
2022-11-06T03:11:06.924Z,17.05
2022-11-06T03:13:52.511Z,1.90
2022-11-06T03:16:48.838Z,2.47
2022-11-06T03:19:35.797Z,2.20
2022-11-06T03:22:44.181Z,2.95
2022-11-06T03:25:22.044Z,2.92
2022-11-06T03:28:06.171Z,3.10
2022-11-06T03:30:43.289Z,3.78
2022-11-06T03:33:32.992Z,3.85
2022-11-06T03:36:10.303Z,2.42
2022-11-06T03:38:44.998Z,2.17
2022-11-06T03:41:19.183Z,4.13
2022-11-06T03:43:49.913Z,4.22
2022-11-06T03:46:21.922Z,3.67
2022-11-06T03:49:02.732Z,2.95
2022-11-06T03:51:44.163Z,7.40
2022-11-06T03:54:17.084Z,6.47
2022-11-06T03:56:50.905Z,2.90
2022-11-06T03:59:23.260Z,3.28
2022-11-06T04:01:53.814Z,3.63
2022-11-06T04:04:27.509Z,3.00
2022-11-06T04:07:02.141Z,3.17
2022-11-06T04:09:51.509Z,4.40
2022-11-06T04:12:41.389Z,2.83
2022-11-06T04:15:12.710Z,2.88
2022-11-06T04:17:40.849Z,2.78
2022-11-06T04:20:33.499Z,2.10
2022-11-06T04:23:12.529Z,1.88
2022-11-06T04:26:23.956Z,1.75
2022-11-06T04:29:00.261Z,2.70
2022-11-06T04:31:39.663Z,3.10
2022-11-06T04:34:17.397Z,2.78
2022-11-06T04:37:06.446Z,2.33
2022-11-06T04:39:46.650Z,1.95
2022-11-06T04:42:28.485Z,2.55
2022-11-06T04:45:03.625Z,1.70
2022-11-06T04:47:31.279Z,2.40
2022-11-06T04:50:01.884Z,2.30
2022-11-06T04:52:29.430Z,3.13
2022-11-06T04:54:58.393Z,2.80
2022-11-06T04:57:26.111Z,3.28
2022-11-06T04:59:53.047Z,2.60
2022-11-06T05:02:19.829Z,2.45
2022-11-06T05:04:46.607Z,2.78
2022-11-06T05:07:14.095Z,2.60
2022-11-06T05:09:41.575Z,2.65
2022-11-06T05:12:08.347Z,2.72
2022-11-06T05:14:35.065Z,2.55
2022-11-06T05:17:01.771Z,3.13
2022-11-06T05:19:28.480Z,3.67
2022-11-06T05:22:13.762Z,2.50
2022-11-06T05:24:40.469Z,1.92
2022-11-06T05:27:07.170Z,1.50
2022-11-06T05:29:33.881Z,2.40
2022-11-06T05:32:00.625Z,1.65
2022-11-06T05:34:27.414Z,2.63
2022-11-06T05:36:54.167Z,2.10
2022-11-06T05:39:20.873Z,2.00
2022-11-06T05:41:47.563Z,2.40
2022-11-06T05:44:14.318Z,4.70
2022-11-06T05:46:49.933Z,3.13
2022-11-06T05:49:18.390Z,3.17
2022-11-06T05:51:45.465Z,3.85
2022-11-06T05:54:12.281Z,2.85
2022-11-06T05:56:39.047Z,3.50
2022-11-06T05:59:05.885Z,6.75
2022-11-06T06:01:32.665Z,108.82
2022-11-06T06:03:59.437Z,22.70
2022-11-06T06:06:26.476Z,26.63
2022-11-06T06:08:53.210Z,35.35
2022-11-06T06:11:19.978Z,20.35
2022-11-06T06:13:48.295Z,7.93
2022-11-06T06:16:15.807Z,6.90
2022-11-06T06:18:42.600Z,7.00
2022-11-06T06:21:09.335Z,15.00
2022-11-06T06:23:36.059Z,13.65
2022-11-06T06:26:02.908Z,27.63
2022-11-06T06:28:29.671Z,48.53
2022-11-06T06:31:01.205Z,29.30
2022-11-06T06:33:28.664Z,61.35
2022-11-06T06:35:55.453Z,5.75
2022-11-06T06:38:22.590Z,14.63
2022-11-06T06:40:49.301Z,3.58
2022-11-06T06:43:16.024Z,4.53
2022-11-06T06:45:42.895Z,14.23
2022-11-06T06:48:09.645Z,8.50
2022-11-06T06:50:36.391Z,5.85
2022-11-06T06:53:03.750Z,4.03
2022-11-06T06:55:30.453Z,4.70
2022-11-06T06:57:59.106Z,4.82
2022-11-06T07:00:26.561Z,4.47
2022-11-06T07:02:53.385Z,4.82
2022-11-06T07:05:20.368Z,4.25
2022-11-06T07:07:47.409Z,4.75
2022-11-06T07:10:14.219Z,3.58
2022-11-06T07:12:40.959Z,2.85
2022-11-06T07:15:08.407Z,2.28
2022-11-06T07:17:35.124Z,2.85
2022-11-06T07:20:01.822Z,3.63
2022-11-06T07:22:35.435Z,4.25
2022-11-06T07:25:04.771Z,4.30
2022-11-06T07:27:31.502Z,2.47
2022-11-06T07:30:00.308Z,2.17
2022-11-06T07:32:27.142Z,2.40
2022-11-06T07:34:53.892Z,4.65
2022-11-06T07:37:20.605Z,9.20
2022-11-06T07:39:47.304Z,9.70
2022-11-06T07:42:14.022Z,12.40
2022-11-06T07:44:55.477Z,6.05
2022-11-06T07:47:22.631Z,4.65
2022-11-06T07:49:51.120Z,5.45
2022-11-06T07:52:18.201Z,7.68
2022-11-06T07:54:44.947Z,6.70
2022-11-06T07:57:11.657Z,5.28
2022-11-06T07:59:38.399Z,6.88
2022-11-06T08:02:05.429Z,4.45
2022-11-06T08:04:32.207Z,4.55
2022-11-06T08:06:58.888Z,7.63
2022-11-06T08:09:25.632Z,5.95
2022-11-06T08:11:52.344Z,10.55
2022-11-06T08:14:19.061Z,8.32
2022-11-06T08:16:45.761Z,7.80
2022-11-06T08:19:12.485Z,5.43
2022-11-06T08:21:39.318Z,2.97
2022-11-06T08:24:06.911Z,4.47
2022-11-06T08:26:34.108Z,5.68
2022-11-06T08:29:00.816Z,4.68
2022-11-06T08:31:27.646Z,3.65
2022-11-06T08:33:54.414Z,3.38
2022-11-06T08:36:21.223Z,2.42
2022-11-06T08:38:48.560Z,2.75
2022-11-06T08:41:15.436Z,3.08
2022-11-06T08:43:42.143Z,2.35
2022-11-06T08:46:09.851Z,1.90
2022-11-06T08:48:36.641Z,1.63
2022-11-06T08:51:05.684Z,1.50
2022-11-06T08:53:32.595Z,1.67
2022-11-06T08:55:59.413Z,1.40
2022-11-06T08:58:26.212Z,1.63
2022-11-06T09:00:52.980Z,1.40
2022-11-06T09:03:19.763Z,1.30
2022-11-06T09:05:47.048Z,2.65
2022-11-06T09:08:14.593Z,1.55
2022-11-06T09:10:42.837Z,1.58
2022-11-06T09:13:10.910Z,0.93
2022-11-06T09:15:38.006Z,1.50
2022-11-06T09:18:05.190Z,2.13
2022-11-06T09:20:31.870Z,1.27
2022-11-06T09:23:03.708Z,1.38
2022-11-06T09:25:30.988Z,1.40
2022-11-06T09:27:59.661Z,1.10
2022-11-06T09:30:29.142Z,1.20
2022-11-06T09:32:58.728Z,1.42
2022-11-06T09:35:27.395Z,2.92
2022-11-06T09:37:54.155Z,1.48
2022-11-06T09:40:32.149Z,1.25
2022-11-06T09:43:50.161Z,1.50
2022-11-06T09:49:06.934Z,1.70
2022-11-06T09:51:38.188Z,2.05
2022-11-06T09:54:29.643Z,4.35
2022-11-06T09:57:05.262Z,2.50
2022-11-06T09:59:36.895Z,3.55
2022-11-06T10:02:36.285Z,3.40
2022-11-06T10:05:14.873Z,2.55
2022-11-06T10:07:44.033Z,2.55
2022-11-06T10:10:20.890Z,2.38
2022-11-06T10:13:04.954Z,2.45
2022-11-06T10:15:43.608Z,1.92
2022-11-06T10:18:41.819Z,1.55
2022-11-06T10:21:22.219Z,2.75
2022-11-06T10:24:06.125Z,1.85
2022-11-06T10:26:39.800Z,1.58
2022-11-06T10:29:24.588Z,0.98
2022-11-06T10:32:13.262Z,1.30
2022-11-06T10:34:47.829Z,1.10
2022-11-06T10:37:31.155Z,1.30
2022-11-06T10:39:59.547Z,0.90
2022-11-06T10:42:38.362Z,2.45
2022-11-06T10:45:18.259Z,2.63
2022-11-06T10:48:10.750Z,1.17
2022-11-06T10:50:53.207Z,1.15
2022-11-06T10:53:35.765Z,1.10
2022-11-06T10:56:10.630Z,1.30
2022-11-06T10:58:37.822Z,0.90
2022-11-06T11:01:06.802Z,0.90
2022-11-06T11:03:40.962Z,1.13
2022-11-06T11:06:07.803Z,1.05
2022-11-06T11:08:46.928Z,0.77
2022-11-06T11:11:13.572Z,1.45
2022-11-06T11:13:40.984Z,1.15
2022-11-06T11:16:35.179Z,1.17
2022-11-06T11:19:34.447Z,1.05
2022-11-06T11:22:21.841Z,1.00
2022-11-06T11:25:04.566Z,1.00
2022-11-06T11:27:44.074Z,1.25
2022-11-06T11:30:21.031Z,1.30
2022-11-06T11:32:47.734Z,1.38
2022-11-06T11:35:20.431Z,0.93
2022-11-06T11:37:47.594Z,2.55
2022-11-06T11:40:37.412Z,1.17
2022-11-06T11:43:23.931Z,1.00
2022-11-06T11:46:14.539Z,1.10
2022-11-06T11:48:58.150Z,1.23
2022-11-06T11:51:37.282Z,1.30
2022-11-06T11:54:15.847Z,1.67
2022-11-06T11:57:04.184Z,0.90
2022-11-06T11:59:38.360Z,1.80
2022-11-06T12:02:22.183Z,1.20
2022-11-06T12:04:55.785Z,0.80
2022-11-06T12:07:33.032Z,1.13
2022-11-06T12:10:01.156Z,1.27
2022-11-06T12:12:36.423Z,1.20
2022-11-06T12:15:18.367Z,1.63
2022-11-06T12:17:52.054Z,0.70
2022-11-06T12:20:25.101Z,0.80
2022-11-06T12:22:55.720Z,0.80
2022-11-06T12:25:25.028Z,0.93
2022-11-06T12:27:57.672Z,2.08
2022-11-06T12:33:00.278Z,1.67
2022-11-06T12:35:47.640Z,1.10
2022-11-06T12:38:33.140Z,1.58
2022-11-06T12:41:30.649Z,1.17
2022-11-06T12:43:58.311Z,1.85
2022-11-06T12:46:43.079Z,2.40
2022-11-06T12:49:43.175Z,1.77
2022-11-06T12:52:38.856Z,1.30
2022-11-06T12:55:33.267Z,1.60
2022-11-06T12:58:54.068Z,1.77
2022-11-06T13:01:28.138Z,2.97
2022-11-06T13:04:03.413Z,1.50
2022-11-06T13:06:35.875Z,1.55
2022-11-06T13:09:17.280Z,1.15
2022-11-06T13:12:06.227Z,1.73
2022-11-06T13:14:47.951Z,1.38
2022-11-06T13:17:28.596Z,1.40
2022-11-06T13:20:06.708Z,1.42
2022-11-06T13:22:57.008Z,1.58
2022-11-06T13:25:36.523Z,1.95
2022-11-06T13:28:21.315Z,0.80
2022-11-06T13:30:48.407Z,1.13
2022-11-06T13:33:38.618Z,1.10
2022-11-06T13:36:07.288Z,1.10
2022-11-06T13:38:41.942Z,1.15
2022-11-06T13:41:22.060Z,0.80
2022-11-06T13:43:54.800Z,1.05
2022-11-06T13:46:27.744Z,1.08
2022-11-06T13:49:18.591Z,1.20
2022-11-06T13:51:53.827Z,1.10
2022-11-06T13:54:27.617Z,2.40
2022-11-06T13:57:00.371Z,1.25
2022-11-06T13:59:59.875Z,1.00
2022-11-06T14:02:55.062Z,0.90
2022-11-06T14:05:52.152Z,0.88
2022-11-06T14:08:30.491Z,0.93
2022-11-06T14:11:06.613Z,1.23
2022-11-06T14:13:35.724Z,1.60
2022-11-06T14:16:08.175Z,1.30
2022-11-06T14:21:43.322Z,1.23
2022-11-06T14:24:33.321Z,1.10
2022-11-06T14:27:03.316Z,1.52
2022-11-06T14:29:30.228Z,2.80
2022-11-06T14:32:21.394Z,2.20
2022-11-06T14:34:48.571Z,1.30
2022-11-06T14:37:18.328Z,1.42
2022-11-06T14:39:51.122Z,1.50
2022-11-06T14:42:27.032Z,1.45
2022-11-06T14:44:57.001Z,1.38
2022-11-06T14:47:37.513Z,1.70
2022-11-06T14:50:18.342Z,1.50
2022-11-06T14:52:51.352Z,1.90
2022-11-06T14:55:42.963Z,1.85
2022-11-06T14:58:23.105Z,2.00
2022-11-06T15:01:10.150Z,1.70
2022-11-06T15:03:55.163Z,2.00
